createdAt,value
2022-12-09T00:04:50.632Z,37.28
2022-12-09T00:09:56.237Z,31.05
2022-12-09T00:15:02.057Z,31.15
2022-12-09T00:20:08.153Z,16.63
2022-12-09T00:25:14.355Z,18.63
2022-12-09T00:30:20.198Z,33.60
2022-12-09T00:35:26.194Z,24.07
2022-12-09T00:40:32.002Z,20.50
2022-12-09T00:45:38.157Z,33.30
2022-12-09T00:50:44.237Z,15.70
2022-12-09T01:00:56.244Z,19.40
2022-12-09T01:11:11.903Z,22.08
2022-12-09T01:16:22.488Z,18.08
2022-12-09T01:21:32.026Z,18.52
2022-12-09T01:26:37.774Z,19.77
2022-12-09T01:31:43.667Z,22.93
2022-12-09T01:36:50.125Z,32.28
2022-12-09T01:41:56.099Z,23.33
2022-12-09T01:47:02.533Z,17.90
2022-12-09T01:52:20.295Z,21.77
2022-12-09T01:57:26.500Z,17.13
2022-12-09T02:02:34.273Z,34.92
2022-12-09T02:07:40.625Z,34.38
2022-12-09T02:12:58.114Z,23.17
2022-12-09T02:18:05.410Z,29.40
2022-12-09T02:23:15.175Z,34.42
2022-12-09T02:28:39.180Z,25.77
2022-12-09T02:34:03.775Z,18.02
2022-12-09T02:39:14.066Z,18.20
2022-12-09T02:44:23.037Z,22.45
2022-12-09T02:49:31.412Z,16.05
2022-12-09T02:54:40.229Z,25.75
2022-12-09T02:59:46.097Z,34.75
2022-12-09T03:05:11.698Z,35.57
2022-12-09T03:10:40.537Z,29.42
2022-12-09T03:15:50.262Z,42.30
2022-12-09T03:20:57.331Z,21.02
2022-12-09T03:26:04.618Z,23.65
2022-12-09T03:31:11.727Z,29.85
2022-12-09T03:36:18.037Z,30.20
2022-12-09T03:41:34.762Z,39.55
2022-12-09T03:46:42.590Z,29.90
2022-12-09T03:51:51.124Z,24.48
2022-12-09T03:56:59.562Z,21.48
2022-12-09T04:02:08.597Z,30.70
2022-12-09T04:07:15.336Z,25.20
2022-12-09T04:17:26.398Z,26.13
2022-12-09T04:22:32.865Z,40.35
2022-12-09T04:27:41.678Z,32.03
2022-12-09T04:32:47.634Z,35.25
2022-12-09T04:37:53.450Z,20.48
2022-12-09T04:42:58.724Z,58.00
2022-12-09T04:48:04.857Z,21.42
2022-12-09T04:53:11.010Z,30.77
2022-12-09T04:58:16.398Z,32.10
2022-12-09T05:03:22.490Z,52.90
2022-12-09T05:08:31.448Z,36.63
2022-12-09T05:13:37.560Z,37.92
2022-12-09T05:18:43.325Z,26.07
2022-12-09T05:23:50.588Z,22.90
2022-12-09T05:28:57.296Z,51.25
2022-12-09T05:34:06.307Z,49.75
2022-12-09T05:39:12.764Z,26.27
2022-12-09T05:44:19.449Z,30.58
2022-12-09T05:49:28.791Z,47.53
2022-12-09T05:54:36.881Z,24.63
2022-12-09T05:59:43.151Z,30.17
2022-12-09T06:09:55.000Z,48.22
2022-12-09T06:15:01.410Z,26.38
2022-12-09T06:20:13.641Z,37.95
2022-12-09T06:25:20.397Z,41.00
2022-12-09T06:30:25.823Z,31.10
2022-12-09T06:35:31.760Z,31.50
2022-12-09T06:40:37.622Z,24.65
2022-12-09T06:45:43.431Z,49.07
2022-12-09T06:50:49.211Z,48.60
2022-12-09T06:55:55.895Z,32.45
2022-12-09T07:01:21.745Z,45.80
2022-12-09T07:06:32.316Z,30.73
2022-12-09T07:11:39.152Z,34.30
2022-12-09T07:16:46.080Z,43.88
2022-12-09T07:21:52.405Z,31.63
2022-12-09T07:32:05.746Z,25.10
2022-12-09T07:37:12.079Z,23.60
2022-12-09T07:42:18.007Z,42.17
2022-12-09T07:47:31.047Z,39.15
2022-12-09T07:52:42.935Z,40.08
2022-12-09T07:57:49.109Z,25.33
2022-12-09T08:02:55.454Z,36.38
2022-12-09T08:13:06.748Z,40.22
2022-12-09T08:18:12.781Z,27.92
2022-12-09T08:23:19.332Z,34.67
2022-12-09T08:28:26.297Z,23.13
2022-12-09T08:33:34.377Z,31.73
2022-12-09T08:38:40.091Z,26.10
2022-12-09T08:43:46.302Z,40.65
2022-12-09T08:48:52.188Z,20.90
2022-12-09T08:53:59.538Z,22.60
2022-12-09T08:59:06.094Z,26.23
2022-12-09T09:04:14.339Z,34.45
2022-12-09T09:09:21.571Z,26.73
2022-12-09T09:14:28.575Z,30.65
2022-12-09T09:19:34.302Z,21.13
2022-12-09T09:24:40.334Z,33.17
2022-12-09T09:29:46.291Z,42.47
2022-12-09T09:34:52.272Z,41.83
2022-12-09T09:39:58.244Z,22.60
2022-12-09T09:45:06.821Z,39.35
2022-12-09T09:50:13.378Z,37.83
2022-12-09T09:55:26.531Z,33.72
2022-12-09T10:00:39.700Z,36.97
2022-12-09T10:05:54.986Z,30.38
2022-12-09T10:11:09.128Z,50.85
2022-12-09T10:16:17.928Z,35.72
2022-12-09T10:21:24.574Z,30.23
2022-12-09T10:26:31.986Z,40.03
2022-12-09T10:31:40.532Z,53.67
2022-12-09T10:36:48.084Z,56.97
2022-12-09T10:42:18.863Z,38.63
2022-12-09T10:47:30.073Z,56.70
2022-12-09T10:52:44.611Z,56.30
2022-12-09T10:57:50.632Z,52.60
2022-12-09T11:02:58.322Z,42.72
2022-12-09T11:08:04.826Z,36.00
2022-12-09T11:13:13.195Z,61.50
2022-12-09T11:18:28.423Z,53.13
2022-12-09T11:23:34.800Z,68.60
2022-12-09T11:33:59.250Z,74.28
2022-12-09T11:39:16.958Z,69.22
2022-12-09T11:44:25.911Z,55.88
2022-12-09T11:49:32.845Z,51.53
2022-12-09T11:54:45.408Z,33.10
2022-12-09T11:59:53.929Z,49.47
2022-12-09T12:05:03.144Z,37.97
2022-12-09T12:10:15.969Z,54.53
2022-12-09T12:15:39.739Z,46.45
2022-12-09T12:20:45.189Z,45.92
2022-12-09T12:26:22.931Z,61.88
2022-12-09T12:32:00.926Z,36.13
2022-12-09T12:37:22.971Z,24.17
2022-12-09T12:42:31.540Z,36.70
2022-12-09T12:47:41.569Z,54.35
2022-12-09T12:52:57.250Z,59.47
2022-12-09T12:58:24.106Z,59.78
2022-12-09T13:03:49.341Z,63.88
2022-12-09T13:09:03.600Z,51.58
2022-12-09T13:14:20.891Z,62.75
2022-12-09T13:19:55.015Z,63.70
2022-12-09T13:25:00.789Z,65.88
2022-12-09T13:30:14.964Z,46.58
2022-12-09T13:35:30.578Z,53.50
2022-12-09T13:40:51.531Z,52.40
2022-12-09T13:46:03.944Z,63.85
2022-12-09T13:51:10.430Z,55.75
2022-12-09T13:56:25.494Z,66.90
2022-12-09T14:01:38.622Z,46.33
2022-12-09T14:06:49.261Z,41.75
2022-12-09T14:11:59.435Z,48.70
2022-12-09T14:17:07.805Z,52.60
2022-12-09T14:22:23.593Z,58.03
2022-12-09T14:27:30.297Z,54.75
2022-12-09T14:32:54.081Z,53.65
2022-12-09T14:38:05.040Z,61.63
2022-12-09T14:43:12.393Z,35.28
2022-12-09T14:48:22.766Z,58.10
2022-12-09T14:53:28.650Z,63.72
2022-12-09T15:04:34.523Z,53.28
2022-12-09T15:09:41.698Z,56.50
2022-12-09T15:14:48.126Z,42.97
2022-12-09T15:25:23.676Z,46.25
2022-12-09T15:30:35.548Z,39.80
2022-12-09T15:35:42.733Z,43.88
2022-12-09T15:41:08.098Z,43.08
2022-12-09T15:46:15.750Z,46.80
2022-12-09T15:51:24.264Z,49.33
2022-12-09T15:56:34.450Z,65.57
2022-12-09T16:01:41.484Z,55.15
2022-12-09T16:06:50.139Z,36.40
2022-12-09T16:11:57.136Z,52.28
2022-12-09T16:17:09.615Z,54.33
2022-12-09T16:22:21.521Z,58.67
2022-12-09T16:27:28.462Z,43.53
2022-12-09T16:32:38.656Z,47.63
2022-12-09T16:38:07.468Z,43.28
2022-12-09T16:43:20.291Z,31.70
2022-12-09T16:48:27.326Z,26.92
2022-12-09T16:53:35.454Z,50.33
2022-12-09T16:58:43.852Z,34.92
2022-12-09T17:03:55.377Z,51.80
2022-12-09T17:09:01.056Z,44.72
2022-12-09T17:14:10.731Z,34.55
2022-12-09T17:24:22.372Z,41.13
2022-12-09T17:29:28.136Z,30.80
2022-12-09T17:34:34.010Z,52.57
2022-12-09T17:39:40.771Z,45.93
2022-12-09T17:44:46.280Z,29.88
2022-12-09T17:49:52.027Z,45.90
2022-12-09T17:54:58.072Z,52.22
2022-12-09T18:00:04.637Z,31.00
2022-12-09T18:05:16.932Z,34.78
2022-12-09T18:10:22.577Z,47.93
2022-12-09T18:15:28.830Z,36.23
2022-12-09T18:20:34.323Z,41.53
2022-12-09T18:25:41.629Z,46.30
2022-12-09T18:30:47.007Z,31.80
2022-12-09T18:35:52.671Z,42.07
2022-12-09T18:41:04.320Z,48.43
2022-12-09T18:46:12.439Z,41.72
2022-12-09T18:51:18.820Z,33.72
2022-12-09T18:56:27.223Z,36.90
2022-12-09T19:01:33.545Z,41.08
2022-12-09T19:06:41.586Z,44.35
2022-12-09T19:11:47.968Z,51.55
2022-12-09T19:16:53.937Z,48.50
2022-12-09T19:21:59.951Z,37.35
2022-12-09T19:27:05.650Z,38.42
2022-12-09T19:32:36.523Z,30.00
2022-12-09T19:37:37.070Z,37.38
2022-12-09T19:42:43.510Z,42.70
2022-12-09T19:52:54.161Z,28.50
2022-12-09T19:57:59.642Z,37.07
2022-12-09T20:03:05.094Z,36.05
2022-12-09T20:08:10.996Z,29.63
2022-12-09T20:13:17.055Z,39.23
2022-12-09T20:18:22.443Z,23.43
2022-12-09T20:23:28.221Z,39.47
2022-12-09T20:28:34.056Z,31.17
2022-12-09T20:33:40.081Z,22.33
2022-12-09T20:38:47.351Z,35.78
2022-12-09T20:43:54.427Z,29.60
2022-12-09T20:49:00.565Z,18.95
2022-12-09T20:54:09.453Z,37.78
2022-12-09T20:59:15.748Z,26.20
2022-12-09T21:04:21.270Z,34.63
2022-12-09T21:09:28.611Z,33.43
2022-12-09T21:14:37.617Z,30.30
2022-12-09T21:19:43.032Z,25.88
2022-12-09T21:24:49.383Z,38.08
2022-12-09T21:29:54.806Z,16.30
2022-12-09T21:35:03.240Z,30.02
2022-12-09T21:40:09.493Z,16.60
2022-12-09T21:45:15.506Z,23.35
2022-12-09T21:50:21.023Z,35.42
2022-12-09T21:55:26.249Z,23.13
2022-12-09T22:00:32.193Z,32.25
2022-12-09T22:05:38.211Z,33.78
2022-12-09T22:10:44.043Z,26.33
2022-12-09T22:15:49.495Z,26.83
2022-12-09T22:21:23.729Z,32.20
2022-12-09T22:26:22.241Z,23.67
2022-12-09T22:31:29.376Z,30.55
2022-12-09T22:36:38.214Z,24.92
2022-12-09T22:41:45.100Z,26.67
2022-12-09T22:46:51.091Z,23.90
2022-12-09T22:52:00.462Z,29.87
2022-12-09T22:57:06.780Z,30.13
2022-12-09T23:02:12.349Z,17.98
2022-12-09T23:07:18.171Z,20.87
2022-12-09T23:12:23.939Z,26.07
2022-12-09T23:17:29.707Z,22.37
2022-12-09T23:22:35.485Z,25.27
2022-12-09T23:27:41.249Z,24.40
2022-12-09T23:32:47.069Z,14.83
2022-12-09T23:38:04.589Z,28.03
2022-12-09T23:43:09.857Z,26.30
2022-12-09T23:48:15.328Z,29.83
2022-12-09T23:53:21.124Z,15.52
2022-12-09T23:58:26.885Z,22.90
